Time;durP1;ratioP1;P1;durP2;ratioP2;P2;SDS_P1;SDS_P2;PMS_P1;PMS_P2;Temp;Humidity;BMP_temperature;BMP_pressure;BME280_temperature;BME280_humidity;BME280_pressure;Samples;Min_cycle;Max_cycle;Signal;HPM_P1;HPM_P2
2022/02/26 00:01:24;;;;;;;11.50;4.50;;;1.20;1.00;;;;;;5085972;28;20163;-77
2022/02/26 00:04:00;;;;;;;5.13;3.80;;;1.20;1.00;;;;;;5054710;28;20170;-76
2022/02/26 00:06:26;;;;;;;8.20;4.25;;;1.20;1.00;;;;;;5053833;28;20512;-75
2022/02/26 00:08:51;;;;;;;6.63;3.60;;;1.10;1.00;;;;;;5053974;28;20179;-75
2022/02/26 00:11:17;;;;;;;5.57;3.60;;;1.10;1.00;;;;;;5053650;28;20167;-76
2022/02/26 00:13:42;;;;;;;6.13;3.47;;;1.00;1.00;;;;;;5046018;28;20701;-75
2022/02/26 00:16:12;;;;;;;8.40;4.07;;;0.90;1.00;;;;;;5053182;28;20164;-75
2022/02/26 00:18:42;;;;;;;6.35;4.05;;;0.90;1.00;;;;;;5054258;28;20287;-77
2022/02/26 00:21:30;;;;;;;11.38;4.10;;;0.90;1.00;;;;;;5053732;28;20156;-77
2022/02/26 00:23:56;;;;;;;9.52;3.85;;;0.90;1.00;;;;;;5053910;28;20239;-77
2022/02/26 00:26:30;;;;;;;8.87;4.90;;;0.90;1.00;;;;;;5053212;28;20254;-77
2022/02/26 00:29:00;;;;;;;8.07;4.22;;;0.80;1.00;;;;;;5032533;28;20176;-77
2022/02/26 00:31:48;;;;;;;11.50;4.90;;;0.80;1.00;;;;;;5033716;28;20168;-77
2022/02/26 00:34:18;;;;;;;11.43;5.10;;;0.80;1.00;;;;;;5035854;28;20503;-75
2022/02/26 00:36:49;;;;;;;15.35;5.07;;;0.80;1.00;;;;;;5053635;28;20656;-76
2022/02/26 00:39:18;;;;;;;7.47;4.50;;;0.80;1.00;;;;;;5053250;28;20242;-76
2022/02/26 00:41:44;;;;;;;12.27;4.70;;;0.90;1.00;;;;;;5053846;28;20182;-75
2022/02/26 00:44:09;;;;;;;10.87;5.97;;;0.80;1.00;;;;;;5053085;28;20539;-75
2022/02/26 00:46:35;;;;;;;10.03;5.10;;;0.90;1.00;;;;;;5053480;28;20225;-76
2022/02/26 00:52:16;;;;;;;11.43;5.20;;;1.10;1.00;;;;;;5053714;28;20278;-77
2022/02/26 00:54:54;;;;;;;11.40;5.30;;;1.20;1.00;;;;;;5053112;28;20171;-77
2022/02/26 00:57:20;;;;;;;8.45;5.30;;;1.10;1.00;;;;;;5053621;28;20190;-77
2022/02/26 00:59:46;;;;;;;17.00;4.77;;;1.20;1.00;;;;;;5051620;28;20192;-77
2022/02/26 01:02:48;;;;;;;11.40;4.88;;;1.20;1.00;;;;;;5085563;28;20403;-77
2022/02/26 01:05:18;;;;;;;8.63;5.43;;;1.10;1.00;;;;;;5053365;28;20167;-75
2022/02/26 01:07:48;;;;;;;14.02;6.25;;;1.10;1.00;;;;;;5053294;28;20500;-75
2022/02/26 01:10:24;;;;;;;21.08;5.38;;;1.20;1.00;;;;;;5053603;28;20587;-76
2022/02/26 01:13:00;;;;;;;11.70;5.57;;;1.20;1.00;;;;;;5057463;28;20171;-75
2022/02/26 01:15:30;;;;;;;7.70;4.47;;;1.20;1.00;;;;;;5056973;28;20172;-76
2022/02/26 01:18:30;;;;;;;14.27;5.45;;;1.20;1.00;;;;;;5057515;28;20199;-77
2022/02/26 01:20:55;;;;;;;9.10;4.47;;;1.20;1.00;;;;;;5055826;28;20167;-77
2022/02/26 01:23:21;;;;;;;9.97;4.93;;;1.20;1.00;;;;;;5055434;28;20160;-77
2022/02/26 01:26:00;;;;;;;7.45;4.97;;;1.20;1.00;;;;;;5056990;28;20402;-76
2022/02/26 01:28:30;;;;;;;14.18;5.25;;;1.20;1.00;;;;;;5056546;28;20179;-78
2022/02/26 01:31:00;;;;;;;12.32;4.70;;;1.30;1.00;;;;;;5057029;28;20220;-77
2022/02/26 01:33:26;;;;;;;10.63;5.35;;;1.20;1.00;;;;;;5057127;28;20183;-76
2022/02/26 01:35:51;;;;;;;9.93;4.60;;;1.10;1.00;;;;;;5057245;28;20163;-76
2022/02/26 01:38:18;;;;;;;8.53;4.80;;;;;;;;;;5056344;28;20188;-79
2022/02/26 01:40:43;;;;;;;18.70;4.88;;;1.10;1.00;;;;;;5056746;28;20569;-76
2022/02/26 01:43:18;;;;;;;13.03;4.10;;;1.00;1.00;;;;;;5056454;28;20172;-75
2022/02/26 01:45:58;;;;;;;12.38;4.25;;;1.00;1.00;;;;;;5043978;28;20175;-75
2022/02/26 01:48:37;;;;;;;8.55;3.78;;;0.90;1.00;;;;;;5056942;28;20326;-76
2022/02/26 01:51:12;;;;;;;11.10;3.83;;;0.80;1.00;;;;;;5056469;28;20179;-76
2022/02/26 01:53:48;;;;;;;7.68;4.85;;;0.80;1.00;;;;;;5056429;28;20182;-75
2022/02/26 01:56:31;;;;;;;6.63;4.60;;;0.80;1.00;;;;;;5056377;28;20171;-75
2022/02/26 01:59:00;;;;;;;5.90;4.13;;;0.70;1.00;;;;;;5056391;28;20209;-75
2022/02/26 02:01:36;;;;;;;10.85;4.38;;;0.70;1.00;;;;;;5056119;28;20183;-75
2022/02/26 02:04:02;;;;;;;8.27;3.60;;;0.70;1.00;;;;;;5056744;28;20205;-77
2022/02/26 02:06:31;;;;;;;9.30;4.25;;;0.80;1.00;;;;;;5054602;28;20168;-76
2022/02/26 02:09:18;;;;;;;17.23;3.92;;;0.80;1.00;;;;;;5056157;28;20160;-77
2022/02/26 02:11:54;;;;;;;8.20;3.97;;;0.80;1.00;;;;;;5054897;28;20174;-77
2022/02/26 02:14:24;;;;;;;10.70;4.40;;;0.90;1.00;;;;;;5056064;28;20167;-77
2022/02/26 02:17:01;;;;;;;11.60;4.50;;;0.90;1.00;;;;;;5054581;28;20630;-77
2022/02/26 02:19:27;;;;;;;16.23;5.07;;;0.80;1.00;;;;;;5055803;28;20254;-75
2022/02/26 02:21:53;;;;;;;18.73;5.37;;;0.80;1.00;;;;;;5055432;28;20632;-75
2022/02/26 02:24:19;;;;;;;14.20;4.80;;;0.80;1.00;;;;;;5055740;28;20160;-76
2022/02/26 02:26:45;;;;;;;18.93;5.80;;;0.70;1.00;;;;;;5055933;28;20406;-76
2022/02/26 02:29:12;;;;;;;10.30;5.75;;;0.70;1.00;;;;;;5054500;28;20472;-75
2022/02/26 02:32:18;;;;;;;14.25;5.55;;;0.70;1.00;;;;;;5054232;28;20183;-77
2022/02/26 02:34:43;;;;;;;15.60;5.65;;;0.70;1.00;;;;;;5056000;28;20168;-77
2022/02/26 02:37:18;;;;;;;15.83;6.13;;;0.80;1.00;;;;;;5054554;28;20180;-77
2022/02/26 02:39:48;;;;;;;13.55;5.85;;;0.80;1.00;;;;;;5054902;28;20706;-77
2022/02/26 02:42:24;;;;;;;14.50;5.40;;;0.90;1.00;;;;;;5055705;28;20551;-77
2022/02/26 02:45:01;;;;;;;15.07;4.95;;;0.90;1.00;;;;;;5055222;28;20258;-77
2022/02/26 02:47:30;;;;;;;8.63;5.25;;;1.00;1.00;;;;;;5055731;28;20226;-77
2022/02/26 02:50:00;;;;;;;14.20;5.80;;;1.10;1.00;;;;;;5054367;28;20180;-75
2022/02/26 02:52:30;;;;;;;12.40;5.18;;;1.10;1.00;;;;;;5055441;28;20202;-76
2022/02/26 02:54:56;;;;;;;13.52;5.00;;;1.20;1.00;;;;;;5055457;28;20182;-75
2022/02/26 02:57:22;;;;;;;16.63;6.07;;;1.20;1.00;;;;;;5055005;28;20171;-75
2022/02/26 02:59:48;;;;;;;13.10;5.67;;;1.30;1.00;;;;;;5055156;28;20799;-75
2022/02/26 03:02:13;;;;;;;18.60;5.80;;;1.40;1.00;;;;;;5055046;28;20972;-75
2022/02/26 03:04:42;;;;;;;8.13;5.00;;;1.30;1.00;;;;;;5055496;28;20153;-77
2022/02/26 03:09:42;;;;;;;21.23;6.17;;;1.30;1.00;;;;;;5055016;28;20179;-77
2022/02/26 03:12:24;;;;;;;11.05;5.55;;;1.30;1.00;;;;;;5054900;28;20225;-77
2022/02/26 03:14:54;;;;;;;10.75;5.55;;;1.30;1.00;;;;;;5053339;28;20176;-77
2022/02/26 03:17:24;;;;;;;15.57;6.93;;;1.20;1.00;;;;;;5054601;28;20694;-77
2022/02/26 03:20:18;;;;;;;16.00;7.25;;;1.20;1.00;;;;;;5054811;28;20253;-77
2022/02/26 03:22:48;;;;;;;14.15;5.93;;;1.20;1.00;;;;;;5054863;28;20214;-77
2022/02/26 03:25:20;;;;;;;17.20;6.75;;;1.30;1.00;;;;;;5054724;28;20198;-77
2022/02/26 03:27:46;;;;;;;17.48;6.32;;;1.30;1.00;;;;;;5054842;28;20178;-77
2022/02/26 03:30:24;;;;;;;14.10;6.57;;;1.30;1.00;;;;;;5053155;28;20613;-77
2022/02/26 03:32:50;;;;;;;15.02;5.75;;;1.30;1.00;;;;;;5054402;28;20627;-77
2022/02/26 03:35:16;;;;;;;12.05;6.70;;;1.40;1.00;;;;;;5054917;28;20206;-77
2022/02/26 03:38:12;;;;;;;20.67;7.03;;;1.50;1.00;;;;;;5054196;28;20168;-78
2022/02/26 03:41:13;;;;;;;16.35;6.63;;;1.60;1.00;;;;;;5053985;28;20406;-77
2022/02/26 03:43:42;;;;;;;19.95;6.10;;;1.60;1.00;;;;;;5054175;28;20172;-77
2022/02/26 03:46:24;;;;;;;11.90;6.40;;;1.60;1.00;;;;;;5054220;28;20152;-77
2022/02/26 03:48:53;;;;;;;14.25;5.93;;;1.60;1.00;;;;;;5053866;28;20282;-76
2022/02/26 03:51:19;;;;;;;11.43;5.97;;;1.70;1.00;;;;;;5054737;28;20186;-77
2022/02/26 03:53:54;;;;;;;14.50;6.40;;;1.80;1.00;;;;;;5054009;28;20734;-77
2022/02/26 03:56:30;;;;;;;8.63;5.78;;;1.80;1.00;;;;;;5054119;28;20675;-77
2022/02/26 03:59:00;;;;;;;14.23;6.15;;;1.90;1.00;;;;;;5054088;28;20214;-77
2022/02/26 04:01:36;;;;;;;10.30;5.85;;;1.80;1.00;;;;;;5053776;28;20172;-77
2022/02/26 04:04:02;;;;;;;17.38;6.60;;;1.80;1.00;;;;;;5054036;28;20159;-77
2022/02/26 04:06:36;;;;;;;19.33;5.77;;;1.80;1.00;;;;;;5054023;28;20171;-77
2022/02/26 04:09:12;;;;;;;14.90;6.15;;;1.80;1.00;;;;;;5052648;28;20513;-77
2022/02/26 04:11:39;;;;;;;15.35;5.85;;;1.70;1.00;;;;;;5046216;28;20181;-77
2022/02/26 04:14:54;;;;;;;20.70;6.00;;;1.70;1.00;;;;;;5054022;28;20160;-77
2022/02/26 04:17:30;;;;;;;16.95;5.68;;;1.60;1.00;;;;;;5033760;28;20694;-77
2022/02/26 04:19:56;;;;;;;17.08;6.20;;;1.60;1.00;;;;;;5040717;28;20195;-75
2022/02/26 04:22:36;;;;;;;12.10;5.38;;;1.50;1.00;;;;;;5052208;28;20520;-75
2022/02/26 04:25:02;;;;;;;9.90;5.18;;;1.40;1.00;;;;;;5053238;28;20175;-76
2022/02/26 04:27:48;;;;;;;6.87;4.90;;;1.30;1.00;;;;;;5052286;28;20262;-76
2022/02/26 04:30:18;;;;;;;13.93;5.43;;;1.20;1.00;;;;;;5053747;28;20194;-76
2022/02/26 04:32:44;;;;;;;15.57;5.10;;;1.10;1.00;;;;;;5053464;28;20509;-76
2022/02/26 04:35:12;;;;;;;11.47;5.83;;;1.10;1.00;;;;;;5053644;28;20178;-75
2022/02/26 04:37:39;;;;;;;12.70;5.97;;;1.00;1.00;;;;;;5053395;28;20394;-76
2022/02/26 04:40:07;;;;;;;10.10;4.95;;;0.90;1.00;;;;;;5053043;28;20191;-75
2022/02/26 04:42:37;;;;;;;15.80;5.40;;;0.80;1.00;;;;;;5053220;28;20164;-75
2022/02/26 04:45:13;;;;;;;17.70;6.53;;;0.80;1.00;;;;;;5051582;28;20184;-75
2022/02/26 04:47:41;;;;;;;16.10;6.35;;;0.80;1.00;;;;;;5052679;28;20229;-75
2022/02/26 04:50:09;;;;;;;12.13;5.85;;;0.70;1.00;;;;;;5052256;28;20820;-76
2022/02/26 04:52:36;;;;;;;15.13;6.40;;;0.60;1.00;;;;;;5052841;28;20172;-75
2022/02/26 04:55:07;;;;;;;15.45;7.03;;;0.60;1.00;;;;;;5053198;28;20243;-75
2022/02/26 04:57:36;;;;;;;17.75;7.25;;;0.50;1.00;;;;;;5053156;28;20243;-76
2022/02/26 05:00:04;;;;;;;21.75;7.70;;;0.50;1.00;;;;;;5051910;28;20195;-75
2022/02/26 05:02:30;;;;;;;11.63;7.32;;;0.50;1.00;;;;;;5051510;28;20500;-75
2022/02/26 05:05:12;;;;;;;19.48;7.72;;;0.40;1.00;;;;;;5053603;28;20246;-76
2022/02/26 05:07:38;;;;;;;16.02;6.55;;;0.40;1.00;;;;;;5053015;28;20167;-75
2022/02/26 05:10:05;;;;;;;19.50;8.03;;;0.40;1.00;;;;;;5052995;28;20566;-75
2022/02/26 05:12:30;;;;;;;20.88;6.95;;;0.40;1.00;;;;;;5053018;28;20185;-76
2022/02/26 05:15:00;;;;;;;22.23;7.63;;;0.40;1.00;;;;;;5052650;28;20172;-75
2022/02/26 05:17:26;;;;;;;12.20;6.55;;;0.40;1.00;;;;;;5052827;28;20208;-75
2022/02/26 05:19:52;;;;;;;29.90;7.10;;;;;;;;;;5052790;28;20195;-75
2022/02/26 05:22:18;;;;;;;17.90;6.90;;;0.30;1.00;;;;;;5053217;28;20335;-77
2022/02/26 05:24:54;;;;;;;22.50;7.15;;;0.30;1.00;;;;;;5052756;28;20238;-77
2022/02/26 05:27:30;;;;;;;16.13;6.95;;;0.30;1.00;;;;;;5052849;28;20148;-77
2022/02/26 05:30:00;;;;;;;25.15;7.85;;;0.30;1.00;;;;;;5052790;28;20176;-77
2022/02/26 05:32:30;;;;;;;27.02;7.63;;;0.20;1.00;;;;;;5052833;28;20612;-77
2022/02/26 05:34:56;;;;;;;24.08;7.78;;;0.10;1.00;;;;;;5052650;28;20182;-77
2022/02/26 05:37:22;;;;;;;20.27;7.07;;;0.20;1.00;;;;;;5053017;28;20263;-76
2022/02/26 05:40:01;;;;;;;27.63;8.45;;;0.10;1.00;;;;;;5051285;28;20192;-75
2022/02/26 05:42:30;;;;;;;21.02;7.55;;;0.10;1.00;;;;;;5052512;28;20202;-76
2022/02/26 05:45:12;;;;;;;21.95;7.40;;;0.10;1.00;;;;;;5052433;28;20183;-75
2022/02/26 05:48:00;;;;;;;23.48;7.20;;;0.10;1.00;;;;;;5052603;28;20178;-76
2022/02/26 05:50:30;;;;;;;21.23;7.03;;;0.00;1.00;;;;;;5052981;28;20198;-77
2022/02/26 05:53:06;;;;;;;22.10;7.32;;;0.00;1.00;;;;;;5050971;28;20179;-77
2022/02/26 05:55:42;;;;;;;15.10;6.97;;;0.00;1.00;;;;;;5052560;28;20186;-77
2022/02/26 05:58:12;;;;;;;20.80;7.60;;;0.00;1.00;;;;;;5054042;28;20198;-77
2022/02/26 06:00:42;;;;;;;28.02;7.28;;;-0.10;1.00;;;;;;5055831;28;20226;-77
2022/02/26 06:03:12;;;;;;;19.90;7.25;;;-0.10;1.00;;;;;;5055674;28;20171;-77
2022/02/26 06:05:42;;;;;;;21.42;7.53;;;-0.10;1.00;;;;;;5056495;28;20167;-77
2022/02/26 06:08:12;;;;;;;26.80;6.60;;;0.00;1.00;;;;;;5055777;28;20172;-77
2022/02/26 06:10:48;;;;;;;18.35;6.80;;;0.00;1.00;;;;;;5056077;28;20609;-79
2022/02/26 06:13:14;;;;;;;24.42;6.32;;;0.00;1.00;;;;;;5054783;28;20254;-77
2022/02/26 06:15:40;;;;;;;18.42;5.88;;;;;;;;;;5055399;28;20168;-77
2022/02/26 06:18:36;;;;;;;16.13;6.10;;;-0.10;1.00;;;;;;5055851;28;20160;-77
2022/02/26 06:21:01;;;;;;;25.23;6.65;;;-0.10;1.00;;;;;;5055964;28;20183;-75
2022/02/26 06:23:48;;;;;;;24.10;6.53;;;-0.10;1.00;;;;;;5055640;28;20171;-76
2022/02/26 06:26:13;;;;;;;25.27;6.35;;;-0.10;1.00;;;;;;5055601;28;20159;-77
2022/02/26 06:29:06;;;;;;;25.23;7.17;;;-0.20;1.00;;;;;;5035658;28;20168;-78
2022/02/26 06:31:31;;;;;;;26.52;7.15;;;-0.20;1.00;;;;;;5035479;28;20165;-78
2022/02/26 06:34:06;;;;;;;22.03;6.90;;;-0.20;1.00;;;;;;5035197;28;20267;-76
2022/02/26 06:36:37;;;;;;;24.15;5.90;;;-0.20;1.00;;;;;;5043265;28;20174;-74
2022/02/26 06:39:18;;;;;;;27.00;7.15;;;-0.20;1.00;;;;;;5054829;28;20184;-74
2022/02/26 06:41:54;;;;;;;23.70;7.47;;;-0.20;1.00;;;;;;5046573;28;20167;-74
2022/02/26 06:44:24;;;;;;;19.60;7.05;;;-0.20;1.00;;;;;;5055025;28;20144;-73
2022/02/26 06:46:54;;;;;;;26.95;7.18;;;-0.20;1.00;;;;;;5055083;28;20180;-75
2022/02/26 06:49:20;;;;;;;24.33;6.75;;;-0.10;1.00;;;;;;5054985;28;20273;-74
2022/02/26 06:52:12;;;;;;;25.73;6.87;;;-0.10;1.00;;;;;;5054367;28;20172;-77
2022/02/26 06:54:42;;;;;;;18.40;7.32;;;0.00;1.00;;;;;;5055069;28;20213;-76
2022/02/26 06:57:12;;;;;;;16.67;6.50;;;0.10;1.00;;;;;;5055159;28;20602;-76
2022/02/26 06:59:38;;;;;;;26.48;7.05;;;0.10;1.00;;;;;;5054851;28;20286;-75
2022/02/26 07:02:07;;;;;;;25.33;7.00;;;0.10;1.00;;;;;;5055107;28;20283;-77
2022/02/26 07:04:43;;;;;;;21.95;7.20;;;0.20;1.00;;;;;;5054801;28;20518;-78
2022/02/26 07:07:24;;;;;;;17.77;6.63;;;0.20;1.00;;;;;;5053656;28;20170;-75
2022/02/26 07:09:50;;;;;;;15.60;6.53;;;0.30;1.00;;;;;;5040839;28;20172;-74
2022/02/26 07:12:16;;;;;;;28.60;6.80;;;0.30;1.00;;;;;;5054865;28;20664;-75
2022/02/26 07:14:44;;;;;;;26.50;6.80;;;0.30;1.00;;;;;;5053213;28;20168;-75
2022/02/26 07:17:18;;;;;;;24.10;6.60;;;0.40;1.00;;;;;;5054706;28;20603;-75
2022/02/26 07:19:45;;;;;;;22.17;6.65;;;0.50;1.00;;;;;;5054369;28;20217;-75
2022/02/26 07:22:24;;;;;;;16.17;6.30;;;0.50;1.00;;;;;;5055024;28;20149;-80
2022/02/26 07:25:00;;;;;;;23.25;6.47;;;0.60;1.00;;;;;;5054639;28;20271;-77
2022/02/26 07:27:54;;;;;;;17.48;6.50;;;0.60;1.00;;;;;;5054305;28;20222;-78
2022/02/26 07:30:30;;;;;;;16.52;5.97;;;0.70;1.00;;;;;;5046960;28;20164;-78
2022/02/26 07:33:09;;;;;;;19.45;6.47;;;0.90;1.00;;;;;;5054373;28;20640;-78
2022/02/26 07:35:36;;;;;;;23.95;5.57;;;0.80;1.00;;;;;;5053006;28;20575;-78
2022/02/26 07:38:24;;;;;;;18.25;5.63;;;0.90;1.00;;;;;;5054618;28;20183;-77
2022/02/26 07:40:49;;;;;;;14.57;6.00;;;1.00;1.00;;;;;;5054006;28;20172;-76
2022/02/26 07:43:24;;;;;;;17.60;6.50;;;1.00;1.00;;;;;;5053883;28;20178;-76
2022/02/26 07:45:59;;;;;;;14.85;6.75;;;1.20;1.00;;;;;;5052674;28;20163;-79
2022/02/26 07:48:25;;;;;;;21.50;6.30;;;1.20;1.00;;;;;;5054018;28;20218;-77
2022/02/26 07:51:01;;;;;;;19.57;5.50;;;1.20;1.00;;;;;;5053688;28;20576;-76
2022/02/26 07:53:36;;;;;;;15.40;5.57;;;1.40;1.00;;;;;;5045167;28;20413;-77
2022/02/26 07:56:02;;;;;;;24.58;6.55;;;1.50;1.00;;;;;;5053992;28;20654;-76
2022/02/26 07:58:29;;;;;;;30.17;6.07;;;1.50;1.00;;;;;;5053820;28;20196;-76
2022/02/26 08:01:00;;;;;;;21.35;6.72;;;1.60;1.00;;;;;;5053498;28;20648;-75
2022/02/26 08:03:30;;;;;;;21.40;6.18;;;1.70;1.00;;;;;;5034077;28;20157;-75
2022/02/26 08:06:00;;;;;;;13.70;6.65;;;1.80;1.00;;;;;;5046734;28;20167;-75
2022/02/26 08:08:36;;;;;;;14.88;5.80;;;1.80;1.00;;;;;;5054101;28;20568;-75
2022/02/26 08:11:02;;;;;;;10.65;6.20;;;2.00;1.00;;;;;;5052346;28;20241;-75
2022/02/26 08:13:28;;;;;;;18.53;6.73;;;2.00;1.00;;;;;;5053541;28;20591;-76
2022/02/26 08:16:00;;;;;;;17.03;5.80;;;2.20;1.00;;;;;;5053779;28;20429;-75
2022/02/26 08:18:26;;;;;;;19.17;5.90;;;2.30;1.00;;;;;;5053360;28;20194;-75
2022/02/26 08:20:51;;;;;;;23.33;6.67;;;2.30;1.00;;;;;;5053042;28;20239;-75
2022/02/26 08:23:18;;;;;;;13.80;6.10;;;2.30;1.00;;;;;;5053865;28;20225;-77
2022/02/26 08:26:18;;;;;;;11.80;6.00;;;2.40;1.00;;;;;;5053956;28;20155;-82
2022/02/26 08:29:00;;;;;;;15.27;5.72;;;2.50;1.00;;;;;;5056577;28;20522;-78
2022/02/26 08:31:26;;;;;;;11.20;5.10;;;2.60;1.00;;;;;;5053404;28;20535;-78
2022/02/26 08:33:52;;;;;;;7.30;5.17;;;2.80;1.00;;;;;;5053414;28;20170;-78
2022/02/26 08:36:18;;;;;;;15.03;4.37;;;2.90;1.00;;;;;;5053259;28;20425;-78
2022/02/26 08:38:49;;;;;;;13.37;4.60;;;3.20;1.00;;;;;;5052628;28;20702;-78
2022/02/26 08:41:42;;;;;;;16.33;4.75;;;3.30;1.00;;;;;;5053319;28;20379;-78
2022/02/26 08:44:08;;;;;;;13.57;5.27;;;3.60;1.00;;;;;;5054607;28;20180;-79
2022/02/26 08:46:36;;;;;;;18.83;5.33;;;3.60;1.00;;;;;;5053266;28;20416;-78
2022/02/26 08:49:07;;;;;;;11.93;4.17;;;3.80;1.00;;;;;;5053300;28;20187;-78
2022/02/26 08:51:34;;;;;;;16.10;4.77;;;3.80;1.00;;;;;;5053356;28;20438;-78
2022/02/26 08:54:00;;;;;;;17.57;3.57;;;4.00;1.00;;;;;;5053212;28;20464;-78
2022/02/26 08:56:48;;;;;;;11.60;3.97;;;4.10;1.00;;;;;;5053230;28;20396;-78
2022/02/26 08:59:18;;;;;;;11.13;3.80;;;4.30;1.00;;;;;;5052721;28;20533;-78
2022/02/26 09:01:54;;;;;;;28.33;4.17;;;4.30;1.00;;;;;;5052861;28;20460;-77
2022/02/26 09:04:25;;;;;;;11.27;3.90;;;4.40;1.00;;;;;;5051644;28;20414;-77
2022/02/26 09:06:51;;;;;;;13.80;4.50;;;4.40;1.00;;;;;;5052663;28;20417;-78
2022/02/26 09:09:16;;;;;;;12.03;4.23;;;4.50;1.00;;;;;;5053697;28;20394;-78
2022/02/26 09:12:01;;;;;;;16.70;4.37;;;4.70;1.00;;;;;;5052973;28;20402;-76
2022/02/26 09:14:36;;;;;;;10.00;4.20;;;4.90;1.00;;;;;;5053105;28;20947;-76
2022/02/26 09:17:02;;;;;;;9.60;3.50;;;4.80;1.00;;;;;;5052899;28;20422;-76
2022/02/26 09:19:42;;;;;;;12.93;3.30;;;5.00;1.00;;;;;;5052954;28;20450;-76
2022/02/26 09:22:08;;;;;;;15.93;3.50;;;5.00;1.00;;;;;;5052025;28;20512;-79
2022/02/26 09:24:35;;;;;;;9.63;3.40;;;5.30;1.00;;;;;;5052350;28;20914;-77
2022/02/26 09:27:07;;;;;;;13.70;3.07;;;5.50;1.00;;;;;;5051957;28;20415;-78
2022/02/26 09:29:36;;;;;;;14.33;4.07;;;5.60;1.00;;;;;;5052941;28;20755;-77
2022/02/26 09:32:02;;;;;;;9.47;2.93;;;5.70;1.00;;;;;;5054690;28;20406;-77
2022/02/26 09:34:36;;;;;;;12.43;3.00;;;6.20;1.00;;;;;;5056830;28;20778;-77
2022/02/26 09:37:02;;;;;;;24.47;3.30;;;6.20;1.00;;;;;;5055550;28;20471;-77
2022/02/26 09:39:30;;;;;;;11.77;3.10;;;6.80;1.00;;;;;;5056850;28;20434;-78
2022/02/26 09:41:57;;;;;;;7.67;2.93;;;7.00;1.00;;;;;;5056649;28;20481;-77
2022/02/26 09:44:25;;;;;;;13.83;3.00;;;7.00;1.00;;;;;;5056031;28;20414;-77
2022/02/26 09:46:56;;;;;;;7.70;2.33;;;8.60;1.00;;;;;;5056680;28;20470;-77
2022/02/26 09:49:21;;;;;;;8.00;2.60;;;7.50;1.00;;;;;;5056239;28;20421;-77
2022/02/26 09:52:07;;;;;;;9.10;2.13;;;7.80;1.00;;;;;;5056127;28;20787;-77
2022/02/26 09:54:47;;;;;;;9.00;2.07;;;7.80;1.00;;;;;;5057062;28;20164;-76
2022/02/26 09:57:26;;;;;;;13.20;2.03;;;8.00;1.00;;;;;;5049682;28;20437;-76
2022/02/26 10:00:12;;;;;;;8.00;1.97;;;8.30;1.00;;;;;;5036440;28;20442;-76
2022/02/26 10:02:39;;;;;;;8.40;2.30;;;8.60;1.00;;;;;;5073676;28;20804;-76
2022/02/26 10:05:19;;;;;;;15.83;2.07;;;8.60;1.00;;;;;;5056191;28;20413;-77
2022/02/26 10:07:47;;;;;;;7.90;1.70;;;8.80;1.00;;;;;;5056195;28;20386;-78
2022/02/26 10:10:28;;;;;;;6.83;1.90;;;9.10;1.00;;;;;;5055256;28;20392;-76
2022/02/26 10:12:55;;;;;;;8.43;1.57;;;9.00;1.00;;;;;;5055561;28;20772;-76
2022/02/26 10:15:28;;;;;;;6.70;1.70;;;9.10;1.00;;;;;;5055682;28;20446;-76
2022/02/26 10:18:05;;;;;;;8.47;2.60;;;9.10;1.00;;;;;;5054660;28;20414;-76
2022/02/26 10:20:32;;;;;;;3.77;1.20;;;9.30;1.00;;;;;;5055311;28;20445;-76
2022/02/26 10:22:58;;;;;;;9.43;2.30;;;9.30;1.00;;;;;;5055480;28;20897;-76
2022/02/26 10:25:27;;;;;;;4.33;1.50;;;9.10;1.00;;;;;;5054960;28;20731;-77
2022/02/26 10:28:13;;;;;;;8.67;1.20;;;9.20;1.00;;;;;;5056056;28;20450;-77
2022/02/26 10:30:49;;;;;;;7.80;1.93;;;9.30;1.00;;;;;;5055529;28;20477;-78
2022/02/26 10:33:23;;;;;;;8.90;2.43;;;9.10;1.00;;;;;;5055810;28;20897;-78
2022/02/26 10:35:57;;;;;;;11.80;2.00;;;9.30;1.00;;;;;;5055554;28;20373;-77
2022/02/26 10:39:06;;;;;;;3.90;1.50;;;9.30;1.00;;;;;;5055449;28;20449;-76
2022/02/26 10:41:46;;;;;;;6.37;1.30;;;9.20;1.00;;;;;;5035268;28;20385;-77
2022/02/26 10:44:21;;;;;;;3.93;1.40;;;9.10;1.00;;;;;;5034763;28;20394;-77
2022/02/26 10:47:25;;;;;;;5.73;1.30;;;9.10;1.00;;;;;;5051044;28;20841;-77
2022/02/26 10:50:00;;;;;;;6.73;1.60;;;9.10;1.00;;;;;;4999759;28;20455;-78
2022/02/26 10:52:31;;;;;;;8.57;1.40;;;8.90;1.00;;;;;;5008620;28;20435;-77
2022/02/26 10:54:58;;;;;;;6.83;1.77;;;8.70;1.00;;;;;;5013757;28;20820;-75
2022/02/26 10:57:32;;;;;;;12.33;1.30;;;8.60;1.00;;;;;;4986944;28;20424;-75
2022/02/26 11:00:07;;;;;;;5.90;1.20;;;8.40;1.00;;;;;;4993629;28;20478;-75
2022/02/26 11:02:33;;;;;;;5.90;1.10;;;8.40;1.00;;;;;;4999841;28;20439;-77
2022/02/26 11:05:00;;;;;;;7.30;1.50;;;8.50;1.00;;;;;;5013369;28;20474;-76
2022/02/26 11:07:31;;;;;;;8.47;1.60;;;8.60;1.00;;;;;;5012279;28;20185;-76
2022/02/26 11:09:59;;;;;;;9.43;1.50;;;8.80;1.00;;;;;;4988392;28;20424;-76
2022/02/26 11:12:36;;;;;;;6.33;1.23;;;8.80;1.00;;;;;;5009202;28;20446;-75
2022/02/26 11:15:31;;;;;;;7.00;1.20;;;8.80;1.00;;;;;;5012942;28;20512;-76
2022/02/26 11:18:00;;;;;;;4.73;1.60;;;8.60;1.00;;;;;;5012226;28;20426;-75
2022/02/26 11:20:28;;;;;;;13.73;1.53;;;8.70;1.00;;;;;;5013052;28;20427;-76
2022/02/26 11:22:57;;;;;;;3.33;1.07;;;8.70;1.00;;;;;;5012223;28;20424;-75
2022/02/26 11:25:25;;;;;;;4.97;1.23;;;8.90;1.00;;;;;;5034875;28;20463;-75
2022/02/26 11:27:51;;;;;;;6.43;1.23;;;8.70;1.00;;;;;;5054800;28;20898;-76
2022/02/26 11:30:24;;;;;;;11.53;1.90;;;8.60;1.00;;;;;;5053502;28;20423;-76
2022/02/26 11:32:55;;;;;;;2.70;1.00;;;8.70;1.00;;;;;;5054578;28;20433;-75
2022/02/26 11:35:26;;;;;;;6.13;1.30;;;8.60;1.00;;;;;;5054616;28;20405;-76
2022/02/26 11:38:07;;;;;;;11.00;1.57;;;8.50;1.00;;;;;;5054400;28;20521;-75
2022/02/26 11:40:42;;;;;;;6.97;1.27;;;8.30;1.00;;;;;;5054608;28;20407;-77
2022/02/26 11:43:35;;;;;;;14.30;1.57;;;8.00;1.00;;;;;;5054222;28;20961;-79
2022/02/26 11:46:34;;;;;;;6.50;1.47;;;8.00;1.00;;;;;;5054169;28;20390;-77
2022/02/26 11:49:30;;;;;;;14.50;1.77;;;8.00;1.00;;;;;;5054167;28;20422;-77
2022/02/26 11:52:15;;;;;;;8.17;1.30;;;8.10;1.00;;;;;;5052686;28;20914;-78
2022/02/26 11:54:42;;;;;;;5.63;1.43;;;8.30;1.00;;;;;;5053934;28;20414;-76
2022/02/26 11:57:12;;;;;;;7.50;1.40;;;8.30;1.00;;;;;;5053881;28;20429;-76
2022/02/26 11:59:42;;;;;;;3.97;1.90;;;8.00;1.00;;;;;;5053667;28;20450;-76
2022/02/26 12:02:13;;;;;;;9.33;2.07;;;8.10;1.00;;;;;;5052892;28;20785;-76
2022/02/26 12:04:42;;;;;;;4.93;1.30;;;8.20;1.00;;;;;;5054035;28;20450;-76
2022/02/26 12:07:48;;;;;;;15.73;1.90;;;8.30;1.00;;;;;;5054276;28;20440;-76
2022/02/26 12:10:27;;;;;;;8.13;1.80;;;8.10;1.00;;;;;;5010796;28;20432;-77
2022/02/26 12:13:31;;;;;;;5.33;1.97;;;8.30;1.00;;;;;;5010247;28;20429;-77
2022/02/26 12:16:16;;;;;;;5.87;1.70;;;8.30;1.00;;;;;;4934798;29;20415;-77
2022/02/26 12:18:59;;;;;;;9.20;1.70;;;8.30;1.00;;;;;;4934422;29;20468;-78
2022/02/26 12:21:43;;;;;;;8.13;1.70;;;8.20;1.00;;;;;;4934323;29;20427;-77
2022/02/26 12:24:22;;;;;;;7.60;1.50;;;8.00;1.00;;;;;;4934210;29;20461;-77
2022/02/26 12:26:57;;;;;;;6.10;2.47;;;7.80;1.00;;;;;;4934835;29;20419;-75
2022/02/26 12:29:39;;;;;;;7.47;1.60;;;7.70;1.00;;;;;;4934248;29;20431;-75
2022/02/26 12:32:11;;;;;;;6.80;1.67;;;7.70;1.00;;;;;;4934550;29;20442;-76
2022/02/26 12:35:04;;;;;;;13.63;1.63;;;7.60;1.00;;;;;;4918368;29;20475;-76
2022/02/26 12:37:36;;;;;;;6.63;2.00;;;7.60;1.00;;;;;;4934379;29;20418;-76
2022/02/26 12:40:11;;;;;;;3.90;1.20;;;7.60;1.00;;;;;;4934337;29;20531;-75
2022/02/26 12:42:40;;;;;;;10.27;1.40;;;7.60;1.00;;;;;;4934359;29;20442;-75
2022/02/26 12:45:09;;;;;;;4.57;1.30;;;7.90;1.00;;;;;;4934031;29;20431;-76
2022/02/26 12:47:44;;;;;;;5.10;1.90;;;8.20;1.00;;;;;;4968633;28;20477;-75
2022/02/26 12:50:15;;;;;;;7.73;1.87;;;8.30;1.00;;;;;;4972660;28;20539;-75
2022/02/26 12:52:58;;;;;;;4.20;1.30;;;8.40;1.00;;;;;;5033902;28;20407;-76
2022/02/26 12:55:32;;;;;;;10.03;1.50;;;8.60;1.00;;;;;;5050261;28;20417;-77
2022/02/26 12:58:00;;;;;;;5.03;1.60;;;8.90;1.00;;;;;;5053245;28;20910;-77
2022/02/26 13:01:06;;;;;;;13.20;2.40;;;9.00;1.00;;;;;;5053204;28;20489;-77
2022/02/26 13:03:36;;;;;;;4.80;1.93;;;9.10;1.00;;;;;;5053453;28;20444;-77
2022/02/26 13:06:07;;;;;;;14.20;2.40;;;9.20;1.00;;;;;;5037993;28;20389;-77
2022/02/26 13:08:37;;;;;;;9.03;2.07;;;9.30;1.00;;;;;;5057509;28;20476;-78
2022/02/26 13:11:20;;;;;;;10.87;2.23;;;9.20;1.00;;;;;;5058054;28;20942;-78
2022/02/26 13:14:15;;;;;;;7.83;2.43;;;9.00;1.00;;;;;;5057427;28;20403;-77
2022/02/26 13:16:59;;;;;;;5.13;1.43;;;8.60;1.00;;;;;;4995829;28;20474;-77
2022/02/26 13:19:31;;;;;;;5.50;1.57;;;8.60;1.00;;;;;;4995772;28;20452;-77
2022/02/26 13:21:59;;;;;;;6.93;1.80;;;8.70;1.00;;;;;;4987796;28;20426;-75
2022/02/26 13:24:38;;;;;;;5.30;1.70;;;8.70;1.00;;;;;;4975658;28;20399;-83
2022/02/26 13:27:09;;;;;;;12.00;2.10;;;8.70;1.00;;;;;;4975575;28;20516;-81
2022/02/26 13:29:46;;;;;;;3.40;1.30;;;8.90;1.00;;;;;;4960205;28;20488;-81
2022/02/26 13:32:16;;;;;;;28.70;17.00;;;9.10;1.00;;;;;;4995194;28;20404;-80
2022/02/26 13:34:50;;;;;;;222.17;78.90;;;9.30;1.00;;;;;;4994319;28;20412;-81
2022/02/26 13:37:16;;;;;;;107.67;43.73;;;9.50;1.00;;;;;;4978640;28;20434;-81
2022/02/26 13:39:46;;;;;;;49.67;22.23;;;9.80;1.00;;;;;;4994552;28;20460;-80